Terminal Aerodrome Forecast
Issued by NWS

Home | Current Version | Previous Version | Text Only | Print | Product List | Glossary On
Versions: 1 2 3 4 5 6 7 8 9 10 11 12 13 14 15 16 17 18
000
FTUS41 KRNK 201720
TAFBCB
TAF
KBCB 201720Z 2018/2118 27005KT P6SM SKC
     FM210000 19004KT P6SM FEW250
     FM211200 23004KT P6SM FEW250 WS020/22035KT
     FM211700 22008KT P6SM FEW150 SCT250=

USA.gov is the U.S. government's official web portal to all federal, state and local government web resources and services.